Time;durP1;ratioP1;P1;durP2;ratioP2;P2;SDS_P1;SDS_P2;PMS_P1;PMS_P2;Temp;Humidity;BMP_temperature;BMP_pressure;BME280_temperature;BME280_humidity;BME280_pressure;Samples;Min_cycle;Max_cycle;Signal;HPM_P1;HPM_P2
2021/12/19 00:02:26;;;;;;;42.63;25.13;;;;;;;;;;5072314;28;20455;-81
2021/12/19 00:10:20;;;;;;;43.40;27.27;;;;;;;;;;5076999;28;20441;-80
2021/12/19 00:12:47;;;;;;;44.08;27.15;;;;;;;;;;5077481;28;20969;-81
2021/12/19 00:15:14;;;;;;;38.67;25.10;;;;;;;;;;5077149;28;20215;-82
2021/12/19 00:17:41;;;;;;;41.97;26.67;;;;;;;;;;5077277;28;20534;-82
2021/12/19 00:20:10;;;;;;;41.63;25.17;;;;;;;;;;5077065;28;20444;-81
2021/12/19 00:22:37;;;;;;;40.23;25.93;;;;;;;;;;5087831;28;20444;-82
2021/12/19 00:25:04;;;;;;;43.17;25.80;;;;;;;;;;5093935;28;20458;-83
2021/12/19 00:27:31;;;;;;;41.13;26.07;;;;;;;;;;5096784;28;20509;-82
2021/12/19 00:29:58;;;;;;;40.67;24.67;;;;;;;;;;5095974;28;20459;-82
2021/12/19 00:32:25;;;;;;;44.33;27.60;;;;;;;;;;5097402;28;20450;-82
2021/12/19 00:34:52;;;;;;;48.67;26.90;;;;;;;;;;5096488;28;20465;-82
2021/12/19 00:37:21;;;;;;;44.00;25.97;;;;;;;;;;5097088;28;20219;-83
2021/12/19 00:39:48;;;;;;;44.43;25.10;;;;;;;;;;5096858;28;20916;-83
2021/12/19 00:42:25;;;;;;;44.42;25.65;;;;;;;;;;5096168;28;20482;-83
2021/12/19 00:44:53;;;;;;;42.00;26.07;;;;;;;;;;5083640;28;20227;-81
2021/12/19 00:47:20;;;;;;;44.40;25.83;;;;;;;;;;5073285;28;20931;-81
2021/12/19 00:49:47;;;;;;;46.90;28.13;;;;;;;;;;5073664;28;20535;-81
2021/12/19 00:52:14;;;;;;;39.90;24.70;;;;;;;;;;5074900;28;20960;-80
2021/12/19 00:54:42;;;;;;;41.00;23.67;;;;;;;;;;5073727;28;20456;-82
2021/12/19 00:57:10;;;;;;;40.30;24.07;;;;;;;;;;5074104;28;20498;-81
2021/12/19 00:59:37;;;;;;;45.73;26.70;;;;;;;;;;5073971;28;20452;-80
2021/12/19 01:02:04;;;;;;;39.27;24.07;;;;;;;;;;5074244;28;20452;-82
2021/12/19 01:04:31;;;;;;;42.60;25.97;;;;;;;;;;5074001;28;20473;-82
2021/12/19 01:07:00;;;;;;;43.78;26.95;;;;;;;;;;5074568;28;20441;-82
2021/12/19 01:09:28;;;;;;;45.60;26.13;;;;;;;;;;5074598;28;20198;-80
2021/12/19 01:11:56;;;;;;;44.35;27.02;;;;;;;;;;5074039;28;20452;-81
2021/12/19 01:14:23;;;;;;;42.20;25.03;;;;;;;;;;5074157;28;20228;-81
2021/12/19 01:16:51;;;;;;;45.90;26.27;;;;;;;;;;5074569;28;20486;-81
2021/12/19 01:19:18;;;;;;;44.30;26.53;;;;;;;;;;5074540;28;20453;-81
2021/12/19 01:21:45;;;;;;;41.50;25.97;;;;;;;;;;5074107;28;20451;-82
2021/12/19 01:24:12;;;;;;;43.10;24.17;;;;;;;;;;5073712;28;20496;-81
2021/12/19 01:26:42;;;;;;;41.03;24.00;;;;;;;;;;5074682;28;20953;-82
2021/12/19 01:29:10;;;;;;;45.90;25.40;;;;;;;;;;5074739;28;20444;-82
2021/12/19 01:31:38;;;;;;;44.37;24.33;;;;;;;;;;5074813;28;20452;-81
2021/12/19 01:34:05;;;;;;;40.97;24.43;;;;;;;;;;5074408;28;20451;-81
2021/12/19 01:36:32;;;;;;;43.60;26.53;;;;;;;;;;5074419;28;20472;-81
2021/12/19 01:38:59;;;;;;;43.47;26.40;;;;;;;;;;5074055;28;20457;-81
2021/12/19 01:41:26;;;;;;;40.85;26.73;;;;;;;;;;5074315;28;20928;-82
2021/12/19 01:43:53;;;;;;;41.13;24.13;;;;;;;;;;5074450;28;20250;-82
2021/12/19 01:46:21;;;;;;;47.20;26.17;;;;;;;;;;5074161;28;20463;-83
2021/12/19 01:48:48;;;;;;;41.53;23.30;;;;;;;;;;5075180;28;20938;-81
2021/12/19 01:51:16;;;;;;;45.47;26.47;;;;;;;;;;5075606;28;20694;-81
2021/12/19 01:53:43;;;;;;;43.30;26.23;;;;;;;;;;5075022;28;20450;-80
2021/12/19 01:56:10;;;;;;;46.87;27.07;;;;;;;;;;5076276;28;20485;-81
2021/12/19 01:58:38;;;;;;;44.83;24.70;;;;;;;;;;5075443;28;20432;-81
2021/12/19 02:01:05;;;;;;;45.13;24.33;;;;;;;;;;5069436;28;20719;-81
2021/12/19 02:03:35;;;;;;;43.60;24.92;;;;;;;;;;5074111;28;20194;-82
2021/12/19 02:06:02;;;;;;;47.10;24.73;;;;;;;;;;5076652;28;20682;-81
2021/12/19 02:08:29;;;;;;;43.20;26.10;;;;;;;;;;5077647;28;20446;-82
2021/12/19 02:10:58;;;;;;;43.90;26.10;;;;;;;;;;5076914;28;20548;-81
2021/12/19 02:13:25;;;;;;;45.27;25.10;;;;;;;;;;5076783;28;20444;-81
2021/12/19 02:15:52;;;;;;;48.03;25.80;;;;;;;;;;5075297;28;20490;-81
2021/12/19 02:18:21;;;;;;;44.37;25.60;;;;;;;;;;5076612;28;20442;-82
2021/12/19 02:20:51;;;;;;;43.83;23.53;;;;;;;;;;5076403;28;20440;-81
2021/12/19 02:23:19;;;;;;;42.93;24.70;;;;;;;;;;5076095;28;20446;-82
2021/12/19 02:25:46;;;;;;;46.57;25.10;;;;;;;;;;5076321;28;20470;-82
2021/12/19 02:28:13;;;;;;;48.20;26.30;;;;;;;;;;5076821;28;20807;-81
2021/12/19 02:30:41;;;;;;;42.73;24.73;;;;;;;;;;5076502;28;20512;-80
2021/12/19 02:33:11;;;;;;;47.83;25.87;;;;;;;;;;5082321;28;20450;-81
2021/12/19 02:35:40;;;;;;;47.13;26.70;;;;;;;;;;5090944;28;20457;-81
2021/12/19 02:49:27;;;;;;;37.73;21.13;;;;;;;;;;5091355;28;20199;-82
2021/12/19 02:51:54;;;;;;;36.23;21.00;;;;;;;;;;5090309;28;20447;-81
2021/12/19 02:54:23;;;;;;;37.80;22.87;;;;;;;;;;5088837;28;20428;-81
2021/12/19 02:56:51;;;;;;;39.93;22.33;;;;;;;;;;5086576;28;20481;-83
2021/12/19 02:59:18;;;;;;;35.30;20.13;;;;;;;;;;5072730;28;20437;-82
2021/12/19 03:01:46;;;;;;;36.15;20.40;;;;;;;;;;5072625;28;20449;-82
2021/12/19 03:04:13;;;;;;;39.70;21.87;;;;;;;;;;5073446;28;20557;-81
2021/12/19 03:06:44;;;;;;;42.77;22.97;;;;;;;;;;5074502;28;20438;-80
2021/12/19 03:09:12;;;;;;;34.93;20.40;;;;;;;;;;5074528;28;20439;-80
2021/12/19 03:12:05;;;;;;;40.27;21.30;;;;;;;;;;5074829;28;20488;-83
2021/12/19 03:20:05;;;;;;;37.13;20.00;;;;;;;;;;5059366;28;20520;-82
2021/12/19 03:22:32;;;;;;;37.40;19.37;;;;;;;;;;5074491;28;20935;-82
2021/12/19 03:24:59;;;;;;;40.20;21.20;;;;;;;;;;5074796;28;20455;-81
2021/12/19 03:27:28;;;;;;;36.37;20.07;;;;;;;;;;5074440;28;20444;-80
2021/12/19 03:29:55;;;;;;;39.37;21.33;;;;;;;;;;5074053;28;20455;-81
2021/12/19 03:32:24;;;;;;;36.40;20.67;;;;;;;;;;5073926;28;20433;-80
2021/12/19 03:34:51;;;;;;;42.40;23.37;;;;;;;;;;5076247;28;20457;-80
2021/12/19 03:37:18;;;;;;;41.97;21.30;;;;;;;;;;5077724;28;20472;-81
2021/12/19 03:39:56;;;;;;;34.27;18.87;;;;;;;;;;5077688;28;20452;-81
2021/12/19 03:42:23;;;;;;;34.85;19.27;;;;;;;;;;5078667;28;20439;-81
2021/12/19 03:44:52;;;;;;;37.63;19.90;;;;;;;;;;5078879;28;20216;-81
2021/12/19 03:47:19;;;;;;;36.13;18.60;;;;;;;;;;5078388;28;20438;-80
2021/12/19 03:49:46;;;;;;;40.83;20.30;;;;;;;;;;5078558;28;20444;-82
2021/12/19 03:52:13;;;;;;;42.05;21.30;;;;;;;;;;5077809;28;20484;-80
2021/12/19 03:54:40;;;;;;;36.60;20.63;;;;;;;;;;5078907;28;20220;-81
2021/12/19 03:57:08;;;;;;;36.67;20.20;;;;;;;;;;5078323;28;20473;-81
2021/12/19 03:59:35;;;;;;;37.77;19.23;;;;;;;;;;5079168;28;20895;-82
2021/12/19 04:02:05;;;;;;;39.27;19.60;;;;;;;;;;5073757;28;20530;-81
2021/12/19 04:04:36;;;;;;;37.27;20.27;;;;;;;;;;5059049;28;20462;-81
2021/12/19 04:07:03;;;;;;;36.70;17.60;;;;;;;;;;5058409;28;20539;-82
2021/12/19 04:09:30;;;;;;;40.33;18.90;;;;;;;;;;5058765;28;20453;-80
2021/12/19 04:11:57;;;;;;;35.80;20.30;;;;;;;;;;5064045;28;20445;-81
2021/12/19 04:14:24;;;;;;;36.37;18.57;;;;;;;;;;5073024;28;20470;-80
2021/12/19 04:16:51;;;;;;;36.50;19.50;;;;;;;;;;5072801;28;20895;-81
2021/12/19 04:19:20;;;;;;;33.50;17.77;;;;;;;;;;5080134;28;20475;-81
2021/12/19 04:21:48;;;;;;;37.97;18.97;;;;;;;;;;5085491;28;20463;-81
2021/12/19 04:24:15;;;;;;;31.57;17.50;;;;;;;;;;5091025;28;20463;-81
2021/12/19 04:26:42;;;;;;;34.67;18.20;;;;;;;;;;5092977;28;20448;-81
2021/12/19 04:29:09;;;;;;;25.93;16.23;;;;;;;;;;5091163;28;20432;-81
2021/12/19 04:31:36;;;;;;;34.23;17.37;;;;;;;;;;5086630;28;20453;-81
2021/12/19 04:34:03;;;;;;;27.07;15.27;;;;;;;;;;5081641;28;20510;-81
2021/12/19 04:36:36;;;;;;;32.17;17.00;;;;;;;;;;5080822;28;21010;-80
2021/12/19 04:39:28;;;;;;;26.37;16.60;;;;;;;;;;5079330;28;20506;-81
2021/12/19 04:53:17;;;;;;;28.35;15.00;;;;;;;;;;5080892;28;20418;-82
2021/12/19 04:58:52;;;;;;;24.97;15.43;;;;;;;;;;5072066;28;20440;-82
2021/12/19 05:01:38;;;;;;;30.40;15.57;;;;;;;;;;5080394;28;20441;-81
2021/12/19 05:04:11;;;;;;;28.80;15.47;;;;;;;;;;5058112;28;20957;-82
2021/12/19 05:14:59;;;;;;;24.40;15.50;;;;;;;;;;5058108;28;20600;-81
2021/12/19 05:17:28;;;;;;;24.67;15.27;;;;;;;;;;5057580;28;21039;-82
2021/12/19 05:20:08;;;;;;;27.70;15.80;;;;;;;;;;5057486;28;20469;-81
2021/12/19 05:22:43;;;;;;;24.60;14.17;;;;;;;;;;5061928;28;20576;-82
2021/12/19 05:25:15;;;;;;;23.00;13.90;;;;;;;;;;5076722;28;21043;-82
2021/12/19 05:27:42;;;;;;;26.13;14.77;;;;;;;;;;5077433;28;20459;-81
2021/12/19 05:30:10;;;;;;;24.23;14.13;;;;;;;;;;5077021;28;20210;-81
2021/12/19 05:32:37;;;;;;;25.77;14.10;;;;;;;;;;5077399;28;20432;-81
2021/12/19 05:35:04;;;;;;;24.43;12.83;;;;;;;;;;5077498;28;20544;-82
2021/12/19 05:45:47;;;;;;;26.47;14.20;;;;;;;;;;5077904;28;21055;-82
2021/12/19 05:48:15;;;;;;;21.93;12.70;;;;;;;;;;5077523;28;20444;-82
2021/12/19 05:50:42;;;;;;;28.03;14.27;;;;;;;;;;5077896;28;20443;-82
2021/12/19 05:53:10;;;;;;;22.50;11.97;;;;;;;;;;5076822;28;20445;-81
2021/12/19 05:55:38;;;;;;;22.50;12.50;;;;;;;;;;5078175;28;20473;-81
2021/12/19 05:58:05;;;;;;;19.67;12.43;;;;;;;;;;5077620;28;20464;-82
2021/12/19 06:00:33;;;;;;;24.87;13.87;;;;;;;;;;5077102;28;20642;-82
2021/12/19 06:03:00;;;;;;;22.27;12.67;;;;;;;;;;5077144;28;20444;-81
2021/12/19 06:05:27;;;;;;;22.17;12.23;;;;;;;;;;5081594;28;20452;-79
2021/12/19 06:07:54;;;;;;;18.65;11.95;;;;;;;;;;5079654;28;20477;-82
2021/12/19 06:10:22;;;;;;;19.50;11.70;;;;;;;;;;5077812;28;20206;-79
2021/12/19 06:12:51;;;;;;;18.60;11.20;;;;;;;;;;5080462;28;20441;-79
2021/12/19 06:15:18;;;;;;;16.67;10.43;;;;;;;;;;5074931;28;20464;-80
2021/12/19 06:17:45;;;;;;;19.83;11.60;;;;;;;;;;5080169;28;20483;-81
2021/12/19 06:20:13;;;;;;;18.60;11.60;;;;;;;;;;5081929;28;20430;-79
2021/12/19 06:22:40;;;;;;;20.27;11.10;;;;;;;;;;5076323;28;20447;-81
2021/12/19 06:25:09;;;;;;;20.73;11.90;;;;;;;;;;5074145;28;20972;-81
2021/12/19 06:27:36;;;;;;;19.65;10.63;;;;;;;;;;5079646;28;20437;-79
2021/12/19 06:30:04;;;;;;;16.63;10.40;;;;;;;;;;5075953;28;20451;-80
2021/12/19 06:32:32;;;;;;;20.77;12.77;;;;;;;;;;5080676;28;20212;-81
2021/12/19 06:35:06;;;;;;;18.80;11.83;;;;;;;;;;5095592;28;20203;-82
2021/12/19 06:37:35;;;;;;;16.27;10.60;;;;;;;;;;5096312;28;20560;-81
2021/12/19 06:40:02;;;;;;;17.67;11.50;;;;;;;;;;5096169;28;20471;-81
2021/12/19 06:42:29;;;;;;;19.03;11.17;;;;;;;;;;5094975;28;20437;-82
2021/12/19 06:44:56;;;;;;;19.43;11.07;;;;;;;;;;5093299;28;20499;-81
2021/12/19 06:47:25;;;;;;;18.00;11.23;;;;;;;;;;5092061;28;20456;-82
2021/12/19 06:49:52;;;;;;;16.27;10.55;;;;;;;;;;5083278;28;20450;-81
2021/12/19 06:52:19;;;;;;;14.93;10.70;;;;;;;;;;5081611;28;20638;-81
2021/12/19 06:54:46;;;;;;;18.13;11.25;;;;;;;;;;5082510;28;20521;-82
2021/12/19 06:57:13;;;;;;;19.53;11.13;;;;;;;;;;5082771;28;20229;-81
2021/12/19 06:59:40;;;;;;;18.63;11.10;;;;;;;;;;5085570;28;20506;-81
2021/12/19 07:02:07;;;;;;;24.13;11.83;;;;;;;;;;5086494;28;20441;-82
2021/12/19 07:04:35;;;;;;;19.70;11.23;;;;;;;;;;5074784;28;20466;-82
2021/12/19 07:07:02;;;;;;;16.63;10.43;;;;;;;;;;5063401;28;20968;-82
2021/12/19 07:09:29;;;;;;;17.83;10.83;;;;;;;;;;5061557;28;20453;-82
2021/12/19 07:11:57;;;;;;;17.70;11.87;;;;;;;;;;5064089;28;20434;-81
2021/12/19 07:14:24;;;;;;;19.70;11.67;;;;;;;;;;5060738;28;20437;-81
2021/12/19 07:16:51;;;;;;;14.80;9.77;;;;;;;;;;5064433;28;20447;-79
2021/12/19 07:19:18;;;;;;;18.23;10.00;;;;;;;;;;5065068;28;20204;-80
2021/12/19 07:21:46;;;;;;;14.90;8.63;;;;;;;;;;5062117;28;20500;-80
2021/12/19 07:24:13;;;;;;;15.20;9.23;;;;;;;;;;5062202;28;20953;-81
2021/12/19 07:26:40;;;;;;;13.15;9.32;;;;;;;;;;5061391;28;20434;-81
2021/12/19 07:29:08;;;;;;;15.47;9.83;;;;;;;;;;5061015;28;20203;-81
2021/12/19 07:31:37;;;;;;;11.60;8.47;;;;;;;;;;5072218;28;20516;-78
2021/12/19 07:34:04;;;;;;;14.80;8.27;;;;;;;;;;5085142;28;20444;-80
2021/12/19 07:36:38;;;;;;;12.52;8.35;;;;;;;;;;5087866;28;20468;-80
2021/12/19 07:39:10;;;;;;;11.10;8.30;;;;;;;;;;5088304;28;20337;-79
2021/12/19 07:41:37;;;;;;;14.00;9.07;;;;;;;;;;5079045;28;20444;-79
2021/12/19 07:44:06;;;;;;;12.77;8.70;;;;;;;;;;5085492;28;20441;-80
2021/12/19 07:46:34;;;;;;;11.50;7.15;;;;;;;;;;5086313;28;20215;-80
2021/12/19 07:49:01;;;;;;;10.10;7.80;;;;;;;;;;5086732;28;20195;-79
2021/12/19 07:51:29;;;;;;;12.87;8.00;;;;;;;;;;5087878;28;20464;-79
2021/12/19 07:53:56;;;;;;;12.20;8.37;;;;;;;;;;5086782;28;20437;-80
2021/12/19 07:56:24;;;;;;;10.30;8.15;;;;;;;;;;5087058;28;20825;-79
2021/12/19 07:58:51;;;;;;;11.27;7.83;;;;;;;;;;5082439;28;20214;-81
2021/12/19 08:01:18;;;;;;;9.60;7.70;;;;;;;;;;5086432;28;20441;-79
2021/12/19 08:03:45;;;;;;;10.03;7.43;;;;;;;;;;5066918;28;20833;-81
2021/12/19 08:06:12;;;;;;;11.13;8.53;;;;;;;;;;5067034;28;20497;-79
2021/12/19 08:08:46;;;;;;;10.30;7.60;;;;;;;;;;5067433;28;20442;-79
2021/12/19 08:13:59;;;;;;;11.43;8.17;;;;;;;;;;5065429;28;20941;-80
2021/12/19 08:16:26;;;;;;;12.37;7.73;;;;;;;;;;5065729;28;20467;-80
2021/12/19 08:18:53;;;;;;;9.40;7.40;;;;;;;;;;5066162;28;20483;-80
2021/12/19 08:21:20;;;;;;;9.87;7.30;;;;;;;;;;5064773;28;20473;-80
2021/12/19 08:23:47;;;;;;;13.40;9.00;;;;;;;;;;5065854;28;20452;-81
2021/12/19 08:26:14;;;;;;;13.80;8.80;;;;;;;;;;5065908;28;20456;-79
2021/12/19 08:28:41;;;;;;;13.30;8.50;;;;;;;;;;5065754;28;20434;-79
2021/12/19 08:31:10;;;;;;;10.60;7.20;;;;;;;;;;5066290;28;21043;-79
2021/12/19 08:33:37;;;;;;;10.80;7.30;;;;;;;;;;5065282;28;20476;-80
2021/12/19 08:36:05;;;;;;;9.57;6.17;;;;;;;;;;5065996;28;20219;-81
2021/12/19 08:38:32;;;;;;;10.18;6.28;;;;;;;;;;5065007;28;20538;-80
2021/12/19 08:40:59;;;;;;;9.97;6.80;;;;;;;;;;5062964;28;20712;-80
2021/12/19 08:43:26;;;;;;;10.80;6.47;;;;;;;;;;5063621;28;20445;-79
2021/12/19 08:45:53;;;;;;;9.03;6.10;;;;;;;;;;5064452;28;20474;-80
2021/12/19 08:48:21;;;;;;;9.03;6.23;;;;;;;;;;5063870;28;20438;-79
2021/12/19 08:50:50;;;;;;;10.17;6.63;;;;;;;;;;5063671;28;20916;-80
2021/12/19 08:53:18;;;;;;;9.77;6.30;;;;;;;;;;5063095;28;20451;-81
2021/12/19 08:55:45;;;;;;;10.47;7.00;;;;;;;;;;5063992;28;20476;-79
2021/12/19 08:58:12;;;;;;;10.70;6.50;;;;;;;;;;5064153;28;20477;-81
2021/12/19 09:00:39;;;;;;;9.30;6.10;;;;;;;;;;5065508;28;20957;-81
2021/12/19 09:03:08;;;;;;;7.37;6.57;;;;;;;;;;5078625;28;20433;-81
2021/12/19 09:05:37;;;;;;;7.50;5.73;;;;;;;;;;5082837;28;20465;-80
2021/12/19 09:08:04;;;;;;;7.20;6.20;;;;;;;;;;5080770;28;20916;-80
2021/12/19 09:10:31;;;;;;;7.07;6.03;;;;;;;;;;5076718;28;20445;-79
2021/12/19 09:12:58;;;;;;;12.53;6.77;;;;;;;;;;5078160;28;20452;-78
2021/12/19 09:15:25;;;;;;;8.60;6.10;;;;;;;;;;5078998;28;20449;-80
2021/12/19 09:17:52;;;;;;;9.80;6.20;;;;;;;;;;5080003;28;20480;-79
2021/12/19 09:20:20;;;;;;;6.57;5.57;;;;;;;;;;5081610;28;20826;-80
2021/12/19 09:22:48;;;;;;;10.07;8.10;;;;;;;;;;5081776;28;20442;-79
2021/12/19 09:25:15;;;;;;;7.38;6.00;;;;;;;;;;5083307;28;20502;-79
2021/12/19 09:27:42;;;;;;;7.50;5.53;;;;;;;;;;5083906;28;20195;-80
2021/12/19 09:30:09;;;;;;;6.47;5.53;;;;;;;;;;5082227;28;20452;-80
2021/12/19 09:32:36;;;;;;;5.10;4.67;;;;;;;;;;5081914;28;20436;-81
2021/12/19 09:35:04;;;;;;;7.07;5.50;;;;;;;;;;5083792;28;20465;-80
2021/12/19 09:37:35;;;;;;;6.20;5.50;;;;;;;;;;5084570;28;20457;-81
2021/12/19 09:40:03;;;;;;;5.07;4.60;;;;;;;;;;5081458;28;20445;-79
2021/12/19 09:42:34;;;;;;;4.03;3.73;;;;;;;;;;5077979;28;20450;-79
2021/12/19 09:45:02;;;;;;;3.63;3.33;;;;;;;;;;5076494;28;20483;-80
2021/12/19 09:47:29;;;;;;;4.53;4.13;;;;;;;;;;5084980;28;20433;-79
2021/12/19 09:49:57;;;;;;;5.13;4.20;;;;;;;;;;5084198;28;20592;-80
2021/12/19 09:52:24;;;;;;;6.37;5.33;;;;;;;;;;5082896;28;20480;-78
2021/12/19 09:54:51;;;;;;;4.70;3.83;;;;;;;;;;5077298;28;20870;-81
2021/12/19 09:57:20;;;;;;;4.57;4.13;;;;;;;;;;5082632;28;20441;-80
2021/12/19 09:59:47;;;;;;;6.03;4.47;;;;;;;;;;5084153;28;20480;-81
2021/12/19 10:02:15;;;;;;;5.90;4.45;;;;;;;;;;5080035;28;20448;-80
2021/12/19 10:04:43;;;;;;;5.23;4.50;;;;;;;;;;5081990;28;20210;-80
2021/12/19 10:07:12;;;;;;;4.90;4.50;;;;;;;;;;5081963;28;20448;-79
2021/12/19 10:09:43;;;;;;;4.20;3.80;;;;;;;;;;5080417;28;20457;-80
2021/12/19 10:12:37;;;;;;;4.40;4.00;;;;;;;;;;5076891;28;20483;-78
2021/12/19 10:15:07;;;;;;;3.90;3.60;;;;;;;;;;5076407;28;21070;-78
2021/12/19 10:17:34;;;;;;;4.83;4.10;;;;;;;;;;5077291;28;20930;-79
2021/12/19 10:20:03;;;;;;;3.80;3.50;;;;;;;;;;5076021;28;20480;-78
2021/12/19 10:22:32;;;;;;;4.87;4.20;;;;;;;;;;5073842;28;20457;-79
2021/12/19 10:24:59;;;;;;;4.03;3.70;;;;;;;;;;5080277;28;20465;-80
2021/12/19 10:27:33;;;;;;;4.43;4.00;;;;;;;;;;5076117;28;20445;-80
2021/12/19 10:30:00;;;;;;;4.97;4.00;;;;;;;;;;5077557;28;20494;-80
2021/12/19 10:32:29;;;;;;;3.87;3.57;;;;;;;;;;5078830;28;20442;-80
2021/12/19 10:35:11;;;;;;;3.83;3.53;;;;;;;;;;5079367;28;20813;-80
2021/12/19 10:37:40;;;;;;;5.47;4.97;;;;;;;;;;5079110;28;20438;-79
2021/12/19 10:40:08;;;;;;;3.83;3.53;;;;;;;;;;5078427;28;20480;-81
2021/12/19 10:42:44;;;;;;;4.70;4.23;;;;;;;;;;5058208;28;20436;-79
2021/12/19 10:48:10;;;;;;;3.97;3.60;;;;;;;;;;5063834;28;20264;-79
2021/12/19 10:50:45;;;;;;;3.60;3.38;;;;;;;;;;5064473;28;20453;-81
2021/12/19 10:53:12;;;;;;;4.00;3.65;;;;;;;;;;5065998;28;20208;-79
2021/12/19 10:55:42;;;;;;;4.87;4.00;;;;;;;;;;5065119;28;20222;-81
2021/12/19 10:58:22;;;;;;;3.60;3.30;;;;;;;;;;5066189;28;20444;-80
2021/12/19 11:00:58;;;;;;;3.63;3.37;;;;;;;;;;5065536;28;20212;-79
2021/12/19 11:03:38;;;;;;;3.27;3.00;;;;;;;;;;5083046;28;20519;-79
2021/12/19 11:06:18;;;;;;;3.40;3.10;;;;;;;;;;5085776;28;20453;-79
2021/12/19 11:08:46;;;;;;;5.00;3.03;;;;;;;;;;5085453;28;20441;-80
2021/12/19 11:11:13;;;;;;;3.80;3.50;;;;;;;;;;5084325;28;20457;-79
2021/12/19 11:13:40;;;;;;;3.20;3.00;;;;;;;;;;5083551;28;20198;-79
2021/12/19 11:16:08;;;;;;;4.20;3.90;;;;;;;;;;5085269;28;20540;-79
2021/12/19 11:18:35;;;;;;;3.80;3.50;;;;;;;;;;5085034;28;20218;-80
2021/12/19 11:21:03;;;;;;;3.73;3.43;;;;;;;;;;5091229;28;20466;-78
2021/12/19 11:23:30;;;;;;;3.97;3.58;;;;;;;;;;5089065;28;20993;-79
2021/12/19 11:25:57;;;;;;;4.70;4.20;;;;;;;;;;5091775;28;20215;-80
2021/12/19 11:28:24;;;;;;;4.53;3.93;;;;;;;;;;5094044;28;20448;-79
2021/12/19 11:30:52;;;;;;;4.57;4.17;;;;;;;;;;5088752;28;20614;-79
2021/12/19 11:33:25;;;;;;;4.07;3.50;;;;;;;;;;5087508;28;20437;-78
2021/12/19 11:35:55;;;;;;;5.93;3.90;;;;;;;;;;5090341;28;20465;-79
2021/12/19 11:38:24;;;;;;;4.80;4.40;;;;;;;;;;5090169;28;20484;-79
2021/12/19 11:40:52;;;;;;;5.13;4.67;;;;;;;;;;5080285;28;21019;-79
2021/12/19 11:43:19;;;;;;;6.40;4.33;;;;;;;;;;5083539;28;20807;-80
2021/12/19 11:45:53;;;;;;;6.13;4.70;;;;;;;;;;5082550;28;20525;-81
2021/12/19 11:48:25;;;;;;;5.33;4.83;;;;;;;;;;5084798;28;20450;-80
2021/12/19 11:50:53;;;;;;;5.83;5.30;;;;;;;;;;5084158;28;20483;-79
2021/12/19 11:53:21;;;;;;;7.50;6.80;;;;;;;;;;5084560;28;20461;-79
2021/12/19 11:55:50;;;;;;;6.50;5.90;;;;;;;;;;5085616;28;20483;-79
2021/12/19 11:58:38;;;;;;;6.20;5.60;;;;;;;;;;5086647;28;20472;-79
2021/12/19 12:01:10;;;;;;;6.07;5.55;;;;;;;;;;5087112;28;20544;-79
2021/12/19 12:03:42;;;;;;;6.13;5.53;;;;;;;;;;5085504;28;20655;-79
2021/12/19 12:06:26;;;;;;;5.70;5.13;;;;;;;;;;5085637;28;20481;-80
2021/12/19 12:09:13;;;;;;;6.20;5.60;;;;;;;;;;5086517;28;20424;-79
2021/12/19 12:12:03;;;;;;;6.20;5.60;;;;;;;;;;5085355;28;20535;-78
2021/12/19 12:14:32;;;;;;;5.80;5.27;;;;;;;;;;5086248;28;20511;-79
2021/12/19 12:17:02;;;;;;;6.63;5.73;;;;;;;;;;5085967;28;20544;-79
2021/12/19 12:19:40;;;;;;;6.77;5.87;;;;;;;;;;5083628;28;20479;-81
2021/12/19 12:22:34;;;;;;;6.30;5.70;;;;;;;;;;5086065;28;20742;-79
2021/12/19 12:25:09;;;;;;;6.30;5.70;;;;;;;;;;5086460;28;20468;-80
2021/12/19 12:27:38;;;;;;;6.63;6.03;;;;;;;;;;5086238;28;20452;-80
2021/12/19 12:30:06;;;;;;;6.40;5.80;;;;;;;;;;5086530;28;20980;-80
2021/12/19 12:32:33;;;;;;;6.77;6.10;;;;;;;;;;5087070;28;20439;-79
2021/12/19 12:35:00;;;;;;;6.30;5.30;;;;;;;;;;5087917;28;20522;-79
2021/12/19 12:37:28;;;;;;;6.40;5.80;;;;;;;;;;5087078;28;20458;-80
2021/12/19 12:40:15;;;;;;;5.70;5.20;;;;;;;;;;5087521;28;20481;-78
2021/12/19 12:42:57;;;;;;;6.28;5.68;;;;;;;;;;5084289;28;21013;-78
2021/12/19 12:45:26;;;;;;;7.17;6.13;;;;;;;;;;5073979;28;20672;-80
2021/12/19 12:47:53;;;;;;;5.93;5.33;;;;;;;;;;5079997;28;20444;-80
2021/12/19 12:50:21;;;;;;;6.33;5.60;;;;;;;;;;5084093;28;20436;-79
2021/12/19 12:52:48;;;;;;;6.40;5.77;;;;;;;;;;5085646;28;20440;-80
2021/12/19 12:55:15;;;;;;;7.10;5.95;;;;;;;;;;5085697;28;20472;-79
2021/12/19 12:57:44;;;;;;;6.37;5.70;;;;;;;;;;5083535;28;20199;-80
2021/12/19 13:00:19;;;;;;;6.93;6.23;;;;;;;;;;5083184;28;20980;-81
2021/12/19 13:02:58;;;;;;;8.40;7.50;;;;;;;;;;5072574;28;20442;-79
2021/12/19 13:05:25;;;;;;;7.43;6.30;;;;;;;;;;5063309;28;20450;-79
2021/12/19 13:07:52;;;;;;;7.83;6.40;;;;;;;;;;5061825;28;20449;-79
2021/12/19 13:10:19;;;;;;;6.87;6.23;;;;;;;;;;5062416;28;20457;-79
2021/12/19 13:12:48;;;;;;;7.27;6.57;;;;;;;;;;5064088;28;20520;-80
2021/12/19 13:15:16;;;;;;;7.57;6.07;;;;;;;;;;5063115;28;20910;-79
2021/12/19 13:17:44;;;;;;;9.13;6.90;;;;;;;;;;5064316;28;20448;-80
2021/12/19 13:20:14;;;;;;;7.77;7.00;;;;;;;;;;5062062;28;20220;-80
2021/12/19 13:22:43;;;;;;;7.60;6.90;;;;;;;;;;5063822;28;20938;-79
2021/12/19 13:25:11;;;;;;;7.68;6.80;;;;;;;;;;5064701;28;20218;-79
2021/12/19 13:27:41;;;;;;;8.33;7.50;;;;;;;;;;5064150;28;20528;-79
2021/12/19 13:30:12;;;;;;;7.53;6.77;;;;;;;;;;5061122;28;20461;-79
2021/12/19 13:32:40;;;;;;;10.73;7.50;;;;;;;;;;5062420;28;20447;-80
2021/12/19 13:35:10;;;;;;;7.70;7.00;;;;;;;;;;5062645;28;20462;-79
2021/12/19 13:37:48;;;;;;;7.80;7.00;;;;;;;;;;5063380;28;20446;-79
2021/12/19 13:40:15;;;;;;;8.10;7.30;;;;;;;;;;5066479;28;20484;-81
2021/12/19 13:42:47;;;;;;;8.57;7.67;;;;;;;;;;5082412;28;20814;-79
2021/12/19 13:45:38;;;;;;;8.00;7.20;;;;;;;;;;5081764;28;20442;-79
2021/12/19 13:48:06;;;;;;;8.07;6.67;;;;;;;;;;5082206;28;20458;-80
2021/12/19 13:50:37;;;;;;;9.83;7.97;;;;;;;;;;5083082;28;20450;-80
2021/12/19 13:53:06;;;;;;;9.40;8.27;;;;;;;;;;5080815;28;20438;-80
2021/12/19 13:55:41;;;;;;;11.17;8.10;;;;;;;;;;5082570;28;20507;-80
2021/12/19 13:58:08;;;;;;;11.33;9.40;;;;;;;;;;5082731;28;20429;-80
2021/12/19 14:00:36;;;;;;;13.40;10.53;;;;;;;;;;5083325;28;20479;-80
2021/12/19 14:03:04;;;;;;;14.03;11.20;;;;;;;;;;5079902;28;20440;-79
2021/12/19 14:05:31;;;;;;;18.70;14.10;;;;;;;;;;5079654;28;20463;-81
2021/12/19 14:07:58;;;;;;;12.60;9.87;;;;;;;;;;5081163;28;20442;-79
2021/12/19 14:10:27;;;;;;;13.27;10.70;;;;;;;;;;5080459;28;20454;-79
2021/12/19 14:13:06;;;;;;;10.90;9.70;;;;;;;;;;5081205;28;20425;-79
2021/12/19 14:15:33;;;;;;;11.80;10.00;;;;;;;;;;5081811;28;20611;-81
2021/12/19 14:18:00;;;;;;;13.43;10.18;;;;;;;;;;5081392;28;20841;-79
2021/12/19 14:20:34;;;;;;;12.80;10.67;;;;;;;;;;5083198;28;21019;-80
2021/12/19 14:23:15;;;;;;;13.30;11.13;;;;;;;;;;5081591;28;20433;-79
2021/12/19 14:25:43;;;;;;;13.63;10.47;;;;;;;;;;5080316;28;20461;-80
2021/12/19 14:28:17;;;;;;;12.60;10.57;;;;;;;;;;5077682;28;20441;-81
2021/12/19 14:30:55;;;;;;;11.50;10.10;;;;;;;;;;5075799;28;20457;-80
2021/12/19 14:33:29;;;;;;;10.43;9.33;;;;;;;;;;5076394;28;20494;-80
2021/12/19 14:35:56;;;;;;;9.73;8.60;;;;;;;;;;5078730;28;20445;-80
2021/12/19 14:38:23;;;;;;;9.13;7.93;;;;;;;;;;5076894;28;20802;-80
2021/12/19 14:40:58;;;;;;;9.20;8.20;;;;;;;;;;5073807;28;20832;-78
2021/12/19 14:43:29;;;;;;;10.32;9.07;;;;;;;;;;5080643;28;20447;-80
2021/12/19 14:45:56;;;;;;;10.20;9.10;;;;;;;;;;5082280;28;20277;-79
2021/12/19 14:48:30;;;;;;;11.37;9.10;;;;;;;;;;5083003;28;21003;-80
2021/12/19 14:50:58;;;;;;;8.87;7.97;;;;;;;;;;5081396;28;20429;-78
2021/12/19 14:53:27;;;;;;;8.67;7.90;;;;;;;;;;5082364;28;20460;-79
2021/12/19 14:55:57;;;;;;;9.53;8.53;;;;;;;;;;5082422;28;20466;-79
2021/12/19 14:58:24;;;;;;;8.63;7.83;;;;;;;;;;5082957;28;20437;-81
2021/12/19 15:00:54;;;;;;;9.20;8.25;;;;;;;;;;5082751;28;20478;-80
2021/12/19 15:03:21;;;;;;;10.10;8.60;;;;;;;;;;5081685;28;20194;-79
2021/12/19 15:05:48;;;;;;;9.57;8.13;;;;;;;;;;5081083;28;20487;-79
2021/12/19 15:08:17;;;;;;;9.20;8.03;;;;;;;;;;5080327;28;20447;-80
2021/12/19 15:10:47;;;;;;;12.03;10.47;;;;;;;;;;5083380;28;20456;-79
2021/12/19 15:13:15;;;;;;;12.35;9.50;;;;;;;;;;5083668;28;20433;-81
2021/12/19 15:15:42;;;;;;;12.10;10.30;;;;;;;;;;5080763;28;20224;-80
2021/12/19 15:18:09;;;;;;;12.17;9.87;;;;;;;;;;5081222;28;20995;-80
2021/12/19 15:20:36;;;;;;;12.20;8.20;;;;;;;;;;5082545;28;20473;-79
2021/12/19 15:23:03;;;;;;;12.37;10.07;;;;;;;;;;5080465;28;20442;-79
2021/12/19 15:25:31;;;;;;;34.00;24.87;;;;;;;;;;5081952;28;20470;-80
2021/12/19 15:27:58;;;;;;;12.23;10.50;;;;;;;;;;5083790;28;20487;-80
2021/12/19 15:30:26;;;;;;;11.37;9.43;;;;;;;;;;5084908;28;20445;-80
2021/12/19 15:32:54;;;;;;;9.37;8.37;;;;;;;;;;5085490;28;20448;-80
2021/12/19 15:35:22;;;;;;;9.73;7.67;;;;;;;;;;5084084;28;20517;-80
2021/12/19 15:37:49;;;;;;;11.30;8.93;;;;;;;;;;5083440;28;20475;-78
2021/12/19 15:40:16;;;;;;;11.20;8.40;;;;;;;;;;5083905;28;20476;-80